createdAt,value
2018-05-10T00:01:13.916Z,98960.92
2018-05-10T00:03:43.798Z,98958.86
2018-05-10T00:06:09.893Z,98959.49
2018-05-10T00:08:35.923Z,98954.65
2018-05-10T00:11:02.876Z,98952.80
2018-05-10T00:13:29.003Z,98952.82
2018-05-10T00:15:56.725Z,98955.06
2018-05-10T00:18:24.418Z,98958.32
2018-05-10T00:20:52.036Z,98963.81
2018-05-10T00:23:18.157Z,98961.44
2018-05-10T00:25:44.975Z,98957.49
2018-05-10T00:28:13.663Z,98959.86
2018-05-10T00:30:39.663Z,98956.83
2018-05-10T00:33:07.632Z,98953.52
2018-05-10T00:35:34.363Z,98948.89
2018-05-10T00:38:00.466Z,98954.30
2018-05-10T00:40:26.518Z,98955.55
2018-05-10T00:42:52.873Z,98953.77
2018-05-10T00:45:18.919Z,98959.38
2018-05-10T00:47:45.044Z,98959.05
2018-05-10T00:50:11.945Z,98965.24
2018-05-10T00:52:39.237Z,98961.14
2018-05-10T00:55:06.103Z,98966.77
2018-05-10T00:57:32.203Z,98968.59
2018-05-10T00:59:59.833Z,98960.76
2018-05-10T01:02:25.971Z,98962.66
2018-05-10T01:04:53.425Z,98960.55
2018-05-10T01:07:19.540Z,98960.80
2018-05-10T01:09:45.667Z,98959.95
2018-05-10T01:12:11.819Z,98956.75
2018-05-10T01:14:37.857Z,98947.52
2018-05-10T01:17:04.629Z,98950.63
2018-05-10T01:19:30.650Z,98944.93
2018-05-10T01:21:57.502Z,98948.64
2018-05-10T01:24:23.548Z,98948.08
2018-05-10T01:26:49.657Z,98951.91
2018-05-10T01:29:15.645Z,98953.44
2018-05-10T01:31:41.725Z,98946.86
2018-05-10T01:34:07.787Z,98953.54
2018-05-10T01:36:35.149Z,98943.36
2018-05-10T01:39:01.959Z,98949.40
2018-05-10T01:41:28.065Z,98946.16
2018-05-10T01:43:54.182Z,98946.59
2018-05-10T01:46:20.204Z,98945.77
2018-05-10T01:48:46.275Z,98955.52
2018-05-10T01:51:13.437Z,98956.52
2018-05-10T01:53:40.497Z,98955.27
2018-05-10T01:56:06.551Z,98956.48
2018-05-10T01:58:32.570Z,98955.58
2018-05-10T02:00:58.649Z,98955.84
2018-05-10T02:03:24.655Z,98943.67
2018-05-10T02:05:51.321Z,98948.58
2018-05-10T02:08:18.019Z,98957.73
2018-05-10T02:10:44.948Z,98955.62
2018-05-10T02:13:11.847Z,98957.69
2018-05-10T02:15:38.812Z,98963.59
2018-05-10T02:18:04.893Z,98960.67
2018-05-10T02:20:33.114Z,98962.73
2018-05-10T02:22:59.221Z,98959.92
2018-05-10T02:25:26.039Z,98963.28
2018-05-10T02:27:52.049Z,98959.66
2018-05-10T02:30:18.148Z,98958.51
2018-05-10T02:32:44.256Z,98962.45
2018-05-10T02:35:11.183Z,98954.06
2018-05-10T02:37:37.183Z,98952.87
2018-05-10T02:40:03.206Z,98956.97
2018-05-10T02:42:29.587Z,98951.70
2018-05-10T02:44:55.695Z,98948.25
2018-05-10T02:47:21.725Z,98949.89
2018-05-10T02:49:49.657Z,98954.14
2018-05-10T02:52:16.701Z,98957.66
2018-05-10T02:54:42.887Z,98959.91
2018-05-10T02:57:09.004Z,98954.61
2018-05-10T02:59:35.766Z,98957.59
2018-05-10T03:02:03.286Z,98963.84
2018-05-10T03:04:29.491Z,98960.39
2018-05-10T03:06:57.029Z,98958.30
2018-05-10T03:09:23.142Z,98957.00
2018-05-10T03:11:49.315Z,98955.88
2018-05-10T03:14:15.439Z,98960.19
2018-05-10T03:16:42.332Z,98959.02
2018-05-10T03:19:08.508Z,98959.59
2018-05-10T03:21:35.416Z,98960.03
2018-05-10T03:24:02.369Z,98957.22
2018-05-10T03:26:29.313Z,98957.33
2018-05-10T03:28:55.391Z,98954.67
2018-05-10T03:31:21.513Z,98962.73
2018-05-10T03:33:47.609Z,98961.99
2018-05-10T03:36:14.766Z,98966.97
2018-05-10T03:38:41.712Z,98960.55
2018-05-10T03:41:07.806Z,98967.07
2018-05-10T03:43:33.859Z,98962.02
2018-05-10T03:46:01.172Z,98959.98
2018-05-10T03:48:31.085Z,98961.06
2018-05-10T03:50:57.879Z,98959.72
2018-05-10T03:53:24.005Z,98961.94
2018-05-10T03:55:50.121Z,98962.07
2018-05-10T03:58:16.246Z,98961.05
2018-05-10T04:00:44.608Z,98956.92
2018-05-10T04:03:10.750Z,98956.03
2018-05-10T04:05:36.853Z,98956.52
2018-05-10T04:08:03.770Z,98959.28
2018-05-10T04:10:29.864Z,98964.21
2018-05-10T04:12:55.948Z,98964.85
2018-05-10T04:15:22.071Z,98962.36
2018-05-10T04:17:48.799Z,98972.61
2018-05-10T04:20:14.868Z,98969.52
2018-05-10T04:22:40.948Z,98976.63
2018-05-10T04:25:08.147Z,98974.93
2018-05-10T04:27:36.316Z,98971.76
2018-05-10T04:30:05.348Z,98969.52
2018-05-10T04:32:31.554Z,98967.47
2018-05-10T04:34:58.719Z,98967.98
2018-05-10T04:37:25.459Z,98970.55
2018-05-10T04:39:52.417Z,98975.53
2018-05-10T04:42:19.348Z,98977.62
2018-05-10T04:44:45.510Z,98973.45
2018-05-10T04:47:11.555Z,98980.28
2018-05-10T04:49:38.417Z,98977.61
2018-05-10T04:52:04.552Z,98976.03
2018-05-10T04:54:31.676Z,98979.93
2018-05-10T04:56:57.780Z,98985.05
2018-05-10T04:59:23.838Z,98980.95
2018-05-10T05:01:49.887Z,98982.89
2018-05-10T05:04:15.907Z,98983.62
2018-05-10T05:06:42.031Z,98981.28
2018-05-10T05:09:08.090Z,98982.75
2018-05-10T05:11:34.138Z,98984.76
2018-05-10T05:14:00.207Z,98987.33
2018-05-10T05:16:26.332Z,98989.55
2018-05-10T05:18:53.489Z,98988.95
2018-05-10T05:21:20.773Z,98982.55
2018-05-10T05:23:46.890Z,98976.41
2018-05-10T05:26:12.952Z,98979.66
2018-05-10T05:31:11.482Z,98988.69
2018-05-10T05:33:37.592Z,98989.45
2018-05-10T05:36:04.555Z,98995.17
2018-05-10T05:38:30.964Z,98990.49
2018-05-10T05:40:56.959Z,98990.46
2018-05-10T05:43:23.280Z,98989.95
2018-05-10T05:45:49.078Z,98993.37
2018-05-10T05:48:15.187Z,98993.53
2018-05-10T05:50:41.268Z,98995.20
2018-05-10T05:53:07.933Z,99003.05
2018-05-10T05:55:34.023Z,99002.88
2018-05-10T05:58:00.057Z,98998.76
2018-05-10T06:00:27.911Z,98997.07
2018-05-10T06:02:54.605Z,98998.92
2018-05-10T06:05:20.770Z,98999.52
2018-05-10T06:07:46.856Z,99006.02
2018-05-10T06:10:12.985Z,99006.27
2018-05-10T06:12:40.534Z,99004.43
2018-05-10T06:15:09.114Z,99006.70
2018-05-10T06:17:37.188Z,99011.48
2018-05-10T06:20:03.417Z,99016.30
2018-05-10T06:22:29.801Z,99020.21
2018-05-10T06:24:56.045Z,99019.92
2018-05-10T06:27:24.620Z,99019.31
2018-05-10T06:29:50.799Z,99018.42
2018-05-10T06:32:18.271Z,99021.58
2018-05-10T06:34:44.489Z,99023.31
2018-05-10T06:37:11.318Z,99025.87
2018-05-10T06:39:38.182Z,99027.14
2018-05-10T06:42:05.106Z,99019.98
2018-05-10T06:44:31.535Z,99031.61
2018-05-10T06:46:57.692Z,99029.80
2018-05-10T06:49:23.782Z,99027.91
2018-05-10T06:51:55.754Z,99029.23
2018-05-10T06:54:24.124Z,99036.66
2018-05-10T06:56:51.398Z,99037.77
2018-05-10T06:59:18.707Z,99037.62
2018-05-10T07:01:47.272Z,99035.02
2018-05-10T07:04:13.407Z,99037.34
2018-05-10T07:06:39.461Z,99040.91
2018-05-10T07:09:05.700Z,99043.20
2018-05-10T07:14:02.659Z,99046.02
2018-05-10T07:16:28.767Z,99042.11
2018-05-10T07:18:55.572Z,99029.45
2018-05-10T07:21:22.524Z,99036.97
2018-05-10T07:23:48.563Z,99028.81
2018-05-10T07:26:14.595Z,99036.41
2018-05-10T07:28:40.625Z,99037.89
2018-05-10T07:31:06.763Z,99037.20
2018-05-10T07:33:32.782Z,99034.24
2018-05-10T07:35:58.878Z,99045.69
2018-05-10T07:38:25.734Z,99033.61
2018-05-10T07:40:51.904Z,99036.84
2018-05-10T07:43:17.953Z,99034.67
2018-05-10T07:45:44.007Z,99039.81
2018-05-10T07:48:10.147Z,99033.81
2018-05-10T07:50:36.207Z,99042.81
2018-05-10T07:53:06.639Z,99051.66
2018-05-10T07:55:34.179Z,99046.63
2018-05-10T07:58:00.190Z,99045.41
2018-05-10T08:00:31.035Z,99048.05
2018-05-10T08:03:02.795Z,99050.08
2018-05-10T08:05:28.869Z,99053.19
2018-05-10T08:07:56.175Z,99047.99
2018-05-10T08:10:22.473Z,99060.06
2018-05-10T08:12:51.017Z,99047.68
2018-05-10T08:15:17.696Z,99058.92
2018-05-10T08:17:43.850Z,99054.77
2018-05-10T08:20:09.974Z,99056.47
2018-05-10T08:22:38.798Z,99053.25
2018-05-10T08:25:04.867Z,99055.21
2018-05-10T08:27:31.901Z,99052.25
2018-05-10T08:32:31.174Z,99056.80
2018-05-10T08:34:59.111Z,99053.33
2018-05-10T08:37:25.180Z,99050.61
2018-05-10T08:39:51.219Z,99057.63
2018-05-10T08:42:17.309Z,99058.23
2018-05-10T08:44:43.430Z,99056.71
2018-05-10T08:47:09.530Z,99060.27
2018-05-10T08:49:36.244Z,99057.07
2018-05-10T08:54:33.372Z,99064.16
2018-05-10T08:56:59.413Z,99061.08
2018-05-10T08:59:25.403Z,99056.78
2018-05-10T09:01:51.382Z,99058.58
2018-05-10T09:04:17.380Z,99058.03
2018-05-10T09:06:44.352Z,99054.08
2018-05-10T09:09:10.394Z,99059.91
2018-05-10T09:11:36.363Z,99058.69
2018-05-10T09:14:02.367Z,99064.53
2018-05-10T09:16:28.451Z,99065.00
2018-05-10T09:18:54.393Z,99062.67
2018-05-10T09:21:20.423Z,99057.86
2018-05-10T09:23:46.574Z,99066.00
2018-05-10T09:26:12.641Z,99072.20
2018-05-10T09:28:38.598Z,99066.09
2018-05-10T09:31:04.599Z,99085.73
2018-05-10T09:33:30.642Z,99079.70
2018-05-10T09:36:02.145Z,99078.07
2018-05-10T09:38:28.155Z,99078.63
2018-05-10T09:40:54.234Z,99071.18
2018-05-10T09:43:20.238Z,99080.06
2018-05-10T09:45:46.386Z,99080.56
2018-05-10T09:48:12.493Z,99081.77
2018-05-10T09:50:39.288Z,99089.25
2018-05-10T09:53:05.327Z,99093.33
2018-05-10T09:55:31.297Z,99089.39
2018-05-10T09:57:59.327Z,99089.16
2018-05-10T10:00:25.272Z,99087.59
2018-05-10T10:02:51.224Z,99092.06
2018-05-10T10:05:17.272Z,99093.91
2018-05-10T10:07:45.890Z,99090.11
2018-05-10T10:10:12.669Z,99093.66
2018-05-10T10:12:39.630Z,99096.06
2018-05-10T10:20:12.527Z,99111.81
2018-05-10T10:22:38.621Z,99115.63
2018-05-10T10:25:04.672Z,99103.53
2018-05-10T10:27:30.764Z,99106.71
2018-05-10T10:29:56.736Z,99108.53
2018-05-10T10:32:22.844Z,99115.73
2018-05-10T10:34:48.997Z,99113.41
2018-05-10T10:37:17.905Z,99103.97
2018-05-10T10:39:43.892Z,99104.90
2018-05-10T10:42:09.878Z,99101.83
2018-05-10T10:44:37.082Z,99101.20
2018-05-10T10:47:03.110Z,99102.77
2018-05-10T10:49:29.150Z,99109.00
2018-05-10T10:51:56.359Z,99108.50
2018-05-10T10:54:22.972Z,99098.66
2018-05-10T10:56:49.445Z,99104.89
2018-05-10T10:59:15.762Z,99105.00
2018-05-10T11:01:44.862Z,99104.59
2018-05-10T11:04:11.045Z,99107.45
2018-05-10T11:06:39.240Z,99109.69
2018-05-10T11:09:06.452Z,99117.52
2018-05-10T11:11:32.650Z,99111.73
2018-05-10T11:13:58.650Z,99112.69
2018-05-10T11:16:24.622Z,99113.77
2018-05-10T11:18:50.615Z,99119.30
2018-05-10T11:21:16.637Z,99114.31
2018-05-10T11:23:42.583Z,99112.78
2018-05-10T11:26:08.570Z,99116.71
2018-05-10T11:28:35.038Z,99118.67
2018-05-10T11:31:00.981Z,99120.92
2018-05-10T11:33:26.988Z,99115.64
2018-05-10T11:38:25.361Z,99101.30
2018-05-10T11:40:51.485Z,99110.33
2018-05-10T11:43:18.417Z,99104.64
2018-05-10T11:45:44.656Z,99108.56
2018-05-10T11:48:10.707Z,99105.50
2018-05-10T11:50:36.846Z,99092.13
2018-05-10T11:55:35.470Z,99101.30
2018-05-10T11:58:01.572Z,99093.41
2018-05-10T12:00:28.668Z,99091.77
2018-05-10T12:02:54.771Z,99093.32
2018-05-10T12:05:20.821Z,99089.40
2018-05-10T12:07:46.871Z,99082.86
2018-05-10T12:12:45.531Z,99083.62
2018-05-10T12:21:53.081Z,99080.41
2018-05-10T12:24:20.242Z,99073.50
2018-05-10T12:26:47.695Z,99075.67
2018-05-10T12:29:13.770Z,99068.83
2018-05-10T12:31:39.748Z,99069.17
2018-05-10T12:36:39.646Z,99067.65
2018-05-10T12:39:08.470Z,99081.14
2018-05-10T12:41:34.447Z,99070.80
2018-05-10T12:44:04.917Z,99077.48
2018-05-10T12:46:31.733Z,99085.94
2018-05-10T12:48:57.708Z,99083.18
2018-05-10T12:51:25.731Z,99088.19
2018-05-10T12:53:51.695Z,99084.09
2018-05-10T12:56:18.267Z,99092.81
2018-05-10T12:58:45.235Z,99097.25
2018-05-10T13:01:11.206Z,99087.58
2018-05-10T13:03:37.168Z,99089.59
2018-05-10T13:06:07.703Z,99092.13
2018-05-10T13:08:34.472Z,99090.92
2018-05-10T13:11:02.474Z,99087.91
2018-05-10T13:18:31.663Z,99086.94
2018-05-10T13:20:57.709Z,99089.73
2018-05-10T13:23:24.737Z,99079.70
2018-05-10T13:28:22.399Z,99080.79
2018-05-10T13:30:49.740Z,99082.67
2018-05-10T13:33:16.714Z,99076.54
2018-05-10T13:35:44.694Z,99074.38
2018-05-10T13:38:12.522Z,99080.75
2018-05-10T13:40:38.528Z,99080.55
2018-05-10T13:43:04.508Z,99082.10
2018-05-10T13:45:30.481Z,99078.77
2018-05-10T13:47:56.491Z,99078.19
2018-05-10T13:50:22.481Z,99082.23
2018-05-10T13:52:48.486Z,99081.96
2018-05-10T13:55:14.765Z,99079.89
2018-05-10T13:57:40.784Z,99086.23
2018-05-10T14:00:06.808Z,99089.86
2018-05-10T14:02:32.865Z,99092.27
2018-05-10T14:04:58.870Z,99083.94
2018-05-10T14:07:24.841Z,99085.56
2018-05-10T14:09:50.798Z,99083.33
2018-05-10T14:12:16.758Z,99078.19
2018-05-10T14:14:42.737Z,99074.78
2018-05-10T14:17:08.753Z,99085.54
2018-05-10T14:19:34.691Z,99090.53
2018-05-10T14:22:00.764Z,99093.89
2018-05-10T14:24:26.676Z,99093.78
2018-05-10T14:26:52.694Z,99099.52
2018-05-10T14:29:18.677Z,99105.34
2018-05-10T14:31:44.621Z,99110.64
2018-05-10T14:34:10.566Z,99108.55
2018-05-10T14:36:36.532Z,99106.63
2018-05-10T14:39:03.518Z,99108.25
2018-05-10T14:41:29.463Z,99107.13
2018-05-10T14:43:55.415Z,99105.17
2018-05-10T14:46:21.389Z,99096.70
2018-05-10T14:48:47.359Z,99105.92
2018-05-10T14:51:13.335Z,99103.30
2018-05-10T14:53:39.341Z,99111.33
2018-05-10T14:56:05.474Z,99118.47
2018-05-10T14:58:31.417Z,99124.63
2018-05-10T15:00:57.403Z,99137.30
2018-05-10T15:03:23.352Z,99139.37
2018-05-10T15:05:49.278Z,99141.24
2018-05-10T15:08:15.264Z,99148.53
2018-05-10T15:10:42.312Z,99144.34
2018-05-10T15:13:08.321Z,99144.26
2018-05-10T15:15:34.369Z,99149.03
2018-05-10T15:18:00.285Z,99155.63
2018-05-10T15:20:26.283Z,99160.09
2018-05-10T15:22:52.298Z,99163.78
2018-05-10T15:25:18.264Z,99167.64
2018-05-10T15:27:44.286Z,99170.05
2018-05-10T15:30:10.291Z,99159.34
2018-05-10T15:32:36.356Z,99161.03
2018-05-10T15:35:02.400Z,99158.31
2018-05-10T15:37:29.393Z,99156.42
2018-05-10T15:39:57.387Z,99171.14
2018-05-10T15:42:23.424Z,99180.73
2018-05-10T15:44:49.424Z,99182.86
2018-05-10T15:47:15.411Z,99181.77
2018-05-10T15:49:41.561Z,99192.67
2018-05-10T15:52:07.662Z,99188.03
2018-05-10T15:54:35.689Z,99179.11
2018-05-10T15:57:01.835Z,99182.72
2018-05-10T15:59:28.118Z,99181.44
2018-05-10T16:01:54.110Z,99181.63
2018-05-10T16:04:20.218Z,99194.94
2018-05-10T16:06:46.297Z,99202.02
2018-05-10T16:09:12.337Z,99208.38
2018-05-10T16:11:38.411Z,99222.58
2018-05-10T16:14:04.398Z,99230.87
2018-05-10T16:16:30.439Z,99238.25
2018-05-10T16:18:56.422Z,99250.75
2018-05-10T16:21:22.404Z,99264.13
2018-05-10T16:23:48.361Z,99268.73
2018-05-10T16:26:14.379Z,99280.84
2018-05-10T16:28:40.337Z,99284.77
2018-05-10T16:31:06.442Z,99289.25
2018-05-10T16:33:32.509Z,99294.37
2018-05-10T16:35:58.423Z,99298.95
2018-05-10T16:38:24.405Z,99297.05
2018-05-10T16:40:50.403Z,99291.28
2018-05-10T16:43:17.703Z,99291.39
2018-05-10T16:45:43.778Z,99299.30
2018-05-10T16:48:09.740Z,99300.42
2018-05-10T16:50:35.763Z,99310.55
2018-05-10T16:53:01.925Z,99320.44
2018-05-10T16:55:28.157Z,99318.33
2018-05-10T16:57:54.128Z,99324.30
2018-05-10T17:00:20.184Z,99321.77
2018-05-10T17:02:46.207Z,99320.09
2018-05-10T17:05:12.194Z,99314.16
2018-05-10T17:07:38.194Z,99310.43
2018-05-10T17:10:04.222Z,99306.58
2018-05-10T17:12:30.206Z,99310.30
2018-05-10T17:14:56.298Z,99309.66
2018-05-10T17:17:22.464Z,99317.34
2018-05-10T17:19:48.439Z,99321.89
2018-05-10T17:22:14.497Z,99323.13
2018-05-10T17:24:40.484Z,99332.97
2018-05-10T17:27:06.511Z,99341.73
2018-05-10T17:29:32.533Z,99347.44
2018-05-10T17:31:58.512Z,99347.84
2018-05-10T17:34:24.517Z,99347.88
2018-05-10T17:36:50.475Z,99348.89
2018-05-10T17:39:16.553Z,99354.75
2018-05-10T17:41:42.609Z,99346.98
2018-05-10T17:44:08.542Z,99354.02
2018-05-10T17:46:34.528Z,99360.30
2018-05-10T17:49:01.203Z,99366.17
2018-05-10T17:51:27.185Z,99370.13
2018-05-10T17:53:53.211Z,99370.33
2018-05-10T17:56:19.202Z,99380.45
2018-05-10T17:58:45.203Z,99388.56
2018-05-10T18:01:11.374Z,99391.41
2018-05-10T18:03:37.301Z,99400.02
2018-05-10T18:06:03.316Z,99409.02
2018-05-10T18:08:29.329Z,99419.33
2018-05-10T18:10:55.310Z,99420.44
2018-05-10T18:13:21.994Z,99427.53
2018-05-10T18:15:47.968Z,99425.69
2018-05-10T18:18:13.908Z,99433.59
2018-05-10T18:20:39.893Z,99441.70
2018-05-10T18:23:06.665Z,99437.22
2018-05-10T18:25:32.676Z,99442.30
2018-05-10T18:27:58.653Z,99447.32
2018-05-10T18:35:29.676Z,99461.16
2018-05-10T18:37:55.887Z,99470.24
2018-05-10T18:40:22.099Z,99477.95
2018-05-10T18:42:52.103Z,99480.08
2018-05-10T18:45:18.155Z,99487.64
2018-05-10T18:47:48.286Z,99502.11
2018-05-10T18:50:15.384Z,99517.49
2018-05-10T18:52:41.385Z,99535.28
2018-05-10T18:55:07.425Z,99550.31
2018-05-10T18:57:33.470Z,99552.88
2018-05-10T18:59:59.495Z,99551.80
2018-05-10T19:02:25.468Z,99557.89
2018-05-10T19:04:51.497Z,99563.23
2018-05-10T19:07:17.594Z,99568.38
2018-05-10T19:09:43.644Z,99589.98
2018-05-10T19:12:09.666Z,99582.50
2018-05-10T19:14:35.694Z,99589.55
2018-05-10T19:17:01.704Z,99600.59
2018-05-10T19:19:28.823Z,99597.53
2018-05-10T19:21:54.952Z,99599.03
2018-05-10T19:24:23.043Z,99603.17
2018-05-10T19:26:54.220Z,99600.56
2018-05-10T19:34:23.556Z,99607.74
2018-05-10T19:36:51.580Z,99613.86
2018-05-10T19:39:17.879Z,99613.98
2018-05-10T19:41:44.052Z,99621.13
2018-05-10T19:46:41.774Z,99624.35
2018-05-10T19:49:07.911Z,99632.12
2018-05-10T19:51:33.988Z,99637.73
2018-05-10T19:54:00.120Z,99648.01
2018-05-10T19:56:26.190Z,99645.06
2018-05-10T19:58:52.214Z,99649.47
2018-05-10T20:01:18.198Z,99647.94
2018-05-10T20:03:44.222Z,99657.43
2018-05-10T20:06:10.316Z,99659.12
2018-05-10T20:08:41.824Z,99664.30
2018-05-10T20:11:09.099Z,99667.38
2018-05-10T20:13:35.140Z,99670.17
2018-05-10T20:16:04.255Z,99674.63
2018-05-10T20:18:30.289Z,99685.55
2018-05-10T20:20:56.993Z,99689.03
2018-05-10T20:23:23.269Z,99698.38
2018-05-10T20:25:49.246Z,99697.72
2018-05-10T20:28:15.283Z,99704.97
2018-05-10T20:30:41.228Z,99707.59
2018-05-10T20:33:10.852Z,99714.25
2018-05-10T20:35:37.144Z,99727.01
2018-05-10T20:38:03.720Z,99730.49
2018-05-10T20:40:29.823Z,99726.44
2018-05-10T20:42:56.666Z,99730.41
2018-05-10T20:45:23.729Z,99729.22
2018-05-10T20:47:49.843Z,99721.42
2018-05-10T20:50:16.931Z,99721.55
2018-05-10T20:52:43.644Z,99721.17
2018-05-10T20:55:10.505Z,99723.49
2018-05-10T20:57:36.445Z,99727.68
2018-05-10T21:00:02.515Z,99736.55
2018-05-10T21:02:28.734Z,99724.98
2018-05-10T21:04:54.922Z,99748.38
2018-05-10T21:09:53.463Z,99744.64
2018-05-10T21:12:19.545Z,99755.88
2018-05-10T21:14:49.016Z,99749.57
2018-05-10T21:17:15.039Z,99760.47
2018-05-10T21:19:42.120Z,99769.53
2018-05-10T21:22:08.083Z,99775.67
2018-05-10T21:24:34.080Z,99780.57
2018-05-10T21:27:00.025Z,99781.74
2018-05-10T21:29:26.019Z,99776.23
2018-05-10T21:31:51.987Z,99773.16
2018-05-10T21:34:17.982Z,99772.45
2018-05-10T21:36:46.065Z,99772.45
2018-05-10T21:39:12.765Z,99773.25
2018-05-10T21:41:38.707Z,99775.98
2018-05-10T21:44:04.667Z,99770.01
2018-05-10T21:49:02.945Z,99772.41
2018-05-10T21:51:29.148Z,99772.83
2018-05-10T21:54:03.230Z,99772.30
2018-05-10T21:59:01.658Z,99783.61
2018-05-10T22:01:27.602Z,99783.23
2018-05-10T22:03:54.704Z,99785.63
2018-05-10T22:06:21.540Z,99788.23
2018-05-10T22:08:49.437Z,99784.22
2018-05-10T22:11:15.566Z,99781.11
2018-05-10T22:13:41.517Z,99773.77
2018-05-10T22:16:11.202Z,99782.72
2018-05-10T22:18:37.245Z,99784.50
2018-05-10T22:21:03.169Z,99782.08
2018-05-10T22:23:29.166Z,99788.81
2018-05-10T22:25:55.179Z,99790.65
2018-05-10T22:28:21.113Z,99798.19
2018-05-10T22:30:47.096Z,99804.29
2018-05-10T22:33:13.082Z,99803.87
2018-05-10T22:35:39.470Z,99796.30
2018-05-10T22:38:05.409Z,99802.48
2018-05-10T22:40:31.437Z,99802.92
2018-05-10T22:42:57.395Z,99798.86
2018-05-10T22:45:23.399Z,99799.23
2018-05-10T22:47:49.379Z,99808.52
2018-05-10T22:50:15.332Z,99808.03
2018-05-10T22:52:41.308Z,99802.69
2018-05-10T22:55:07.313Z,99806.24
2018-05-10T22:57:33.271Z,99810.65
2018-05-10T22:59:59.240Z,99811.48
2018-05-10T23:02:25.218Z,99810.20
2018-05-10T23:04:51.220Z,99815.12
2018-05-10T23:07:17.218Z,99826.58
2018-05-10T23:09:43.249Z,99834.78
2018-05-10T23:12:09.211Z,99837.12
2018-05-10T23:14:35.188Z,99842.36
2018-05-10T23:17:01.178Z,99852.81
2018-05-10T23:19:27.130Z,99852.58
2018-05-10T23:21:53.090Z,99856.88
2018-05-10T23:24:19.078Z,99860.81
2018-05-10T23:26:45.085Z,99858.67
2018-05-10T23:29:11.057Z,99871.25
2018-05-10T23:31:37.042Z,99866.39
2018-05-10T23:34:02.988Z,99876.61
2018-05-10T23:36:28.926Z,99880.69
2018-05-10T23:38:54.907Z,99887.63
2018-05-10T23:41:20.853Z,99895.68
2018-05-10T23:43:46.817Z,99896.72
2018-05-10T23:46:12.820Z,99898.38
2018-05-10T23:48:38.776Z,99894.16
2018-05-10T23:51:04.728Z,99896.11
2018-05-10T23:53:30.670Z,99899.66
2018-05-10T23:55:56.630Z,99901.78
2018-05-10T23:58:22.564Z,99902.75
